Clarksville, Michigan
Current Conditions -  °F | °C
As of 6:14 AM on Friday 28 Nov 2014 (Local Time) from KY70 Reporting Station
Overcast Overcast  
Wind Chill: 20°   Ceiling: 2700
Heat Index: 20°   Visibility: 10mi
Dew Point: 13°   Wind: 3mph
Humidity: 73%   Direction: 230°SW
Pressure: 30.32"   Gusts: NA
Location:  42.84°N, 85.24°W
Report Text: KY70 281114Z AUTO 23003KT 10SM OVC027 M06/M10 A3032 RMK AO2 T10641105
Loading
Personal Weather Stations






























Interactive Weather Map New forecast layout! Learn more

10-Day Weather Forecast

Advertisements
Track Severe Weather on mobile